AirNav   ProFlight Series 2 Aviation Headset
 
 366 users online  

71OH The Christ Hospital Medical Center Heliport
Hamilton, Ohio, USA

GOING TO HAMILTON?


FAA INFORMATION EFFECTIVE 16 JULY 2020

Location

FAA Identifier: 71OH
Lat/Long: 39-22-31.6000N 084-21-38.9000W
39-22.526667N 084-21.648333W
39.3754444,-84.3608056
(estimated)
Elevation: 880 ft. / 268 m (estimated)
From city: 9 miles E of HAMILTON, OH
Time zone: UTC -4 (UTC -5 during Standard Time)
Zip code: 45069

Heliport Operations

Heliport use: Private use. Permission required prior to landing
Activation date: 12/2017
Control tower: no
ARTCC: INDIANAPOLIS CENTER
FSS: DAYTON FLIGHT SERVICE STATION
Attendance: 
Segmented circle: no

Heliport Communications

WX AWOS-3 at I68 (7 nm NE): 120.55 (513-934-5500)
WX ASOS at HAO (8 nm W): 121.425 (513-863-6137)
WX AWOS-3 at MWO (10 nm N): 120.025 (513-422-3505)
WX ASOS at MGY (14 nm NE): 118.375 (937-885-2171)
WX ASOS at LUK (17 nm S): 120.25 (513-321-6291)
WX AWOS-3 at I69 (19 nm S): 127.275 (513-732-6978)

Nearby radio navigation aids

VOR radial/distance  VOR name  Freq  Var
MXQr267/26.1MIDWEST VOR/DME112.9004W
CVGr040/26.8CINCINNATI VORTAC117.3004W
DQNr179/38.5DAYTON VOR/DME114.5001W

 
NDB name  Hdg/Dist  Freq  Var  ID
HOOK FIELD156/8.423904WHKF .... -.- ..-.
ONIDA192/12.322304WMW -- .--
SPORTYS343/19.224504WPWF .--. .-- ..-.

Heliport Services

Runway Information

Helipad H1

Dimensions: 50 x 50 ft. / 15 x 15 m
Surface: concrete, in good condition
Latitude: 39-22.526667N
Longitude: 084-21.648333W
Elevation: 880.0 ft.
Traffic pattern: leftleft

Heliport Ownership and Management from official FAA records

Ownership: Privately-owned
Owner: THE CHRIST HOSPITAL HEALTH NETWORK
2139 AUBURN AVE
CINCINNATI, OH 45219
Phone 513-263-1420
Manager: MARK JOHNSTON
2139 AUBURN AVE CBOB-1
CINCINNATI, OH 45219
Phone 513-263-1420

Additional Remarks

FOR CD CTC INDIANAPOLIS ARTCC AT 317-247-2411.

Instrument Procedures

There are no published instrument procedures at 71OH.

Some nearby airports with instrument procedures:

I68 - Warren County Airport/John Lane Field (7 nm NE)
KHAO - Butler County Regional Airport-Hogan Field (8 nm W)
KMWO - Middletown Regional Airport/Hook Field (10 nm N)
KMGY - Dayton-Wright Brothers Airport (14 nm NE)
KLUK - Cincinnati Municipal Airport-Lunken Field (17 nm S)
I69 - Clermont County Airport (19 nm S)
 
Loc | Ops | Rwys | IFR | FBO | Links
Com | Nav | Svcs | Stats | Notes
Aerial photo
No photo
 
Airport distance calculator
Flying to The Christ Hospital Medical Center Heliport? Find the distance to fly.

From to 71OH

Sunrise and sunset
Times for 10-Aug-2020
 Local
(UTC-4)
 Zulu
(UTC)
Morning civil twilight06:1810:18
Sunrise06:4710:47
Sunset20:3800:38
Evening civil twilight21:0701:07

Current date and time
Zulu (UTC)  10-Aug-2020 07:54:09
Local (UTC-4)  10-Aug-2020 03:54:09
 
METAR
KHAO 
7nm W 
100653Z AUTO 00000KT 7SM CLR 20/19 A3008 RMK AO2 SLP181 T02000194
KI68 
7nm NE 
100735Z AUTO 18003KT 10SM CLR 22/22 A3009 RMK AO1 T02150215
KMWO 
9nm N 
100735Z AUTO 00000KT 1SM BR VV007 20/ A3008 RMK AO2 T0195////
KMGY 
15nm NE 
100653Z AUTO 18004KT 10SM CLR 22/18 A3008 RMK AO2 SLP175 T02220183 TSNO
KLUK 
17nm S 
100653Z AUTO 00000KT 4SM BR CLR 21/20 A3008 RMK AO2 SLP181 T02060200
KI69 
19nm S 
100735Z AUTO 25004KT 10SM CLR 22/20 A3010 RMK AO2 T02150196
TAF
KLUK 
17nm S 
100535Z 1006/1106 00000KT P6SM FEW250 FM100700 00000KT 4SM BR FEW250 TEMPO 1007/1010 1SM BR FM101200 00000KT P6SM SCT250 FM101500 20004KT P6SM VCSH BKN035 FM101700 20006KT P6SM -SHRA VCTS BKN035CB FM102000 21006KT P6SM FEW040 BKN120 FM110300 00000KT P6SM VCSH SCT035 BKN120
NOTAMs
Click for the latest NOTAMs
NOTAMs are issued by the DoD/FAA and will open in a separate window not controlled by AirNav.

 

 
 

Would you like to see your business listed on this page?

 If your business provides an interesting product or service to pilots, flight crews, aircraft, or users of the The Christ Hospital Medical Center Heliport, you should consider listing it here.  To start the listing process, click on the button below
 
Add a business
 

Other Pages about The Christ Hospital Medical Center Heliport

Update a link
 
Copyright © AirNav, LLC. All rights reserved. Privacy Policy  Contact